createdAt,value
2018-07-02T00:00:32.129Z,55.20
2018-07-02T00:03:00.965Z,55.49
2018-07-02T00:05:40.791Z,56.21
2018-07-02T00:08:10.797Z,56.59
2018-07-02T00:10:40.094Z,56.07
2018-07-02T00:13:09.116Z,56.80
2018-07-02T00:15:39.202Z,56.72
2018-07-02T00:18:09.651Z,56.90
2018-07-02T00:20:38.537Z,56.91
2018-07-02T00:23:08.462Z,56.52
2018-07-02T00:25:37.363Z,56.35
2018-07-02T00:28:06.734Z,56.06
2018-07-02T00:30:35.554Z,56.96
2018-07-02T00:33:05.139Z,56.98
2018-07-02T00:35:33.941Z,56.48
2018-07-02T00:38:02.739Z,56.26
2018-07-02T00:40:32.504Z,56.41
2018-07-02T00:43:01.980Z,56.09
2018-07-02T00:45:30.779Z,56.25
2018-07-02T00:47:59.562Z,56.54
2018-07-02T00:50:28.450Z,56.21
2018-07-02T00:52:57.226Z,57.26
2018-07-02T00:55:26.918Z,56.91
2018-07-02T00:57:55.741Z,57.12
2018-07-02T01:00:24.566Z,57.34
2018-07-02T01:02:53.492Z,58.38
2018-07-02T01:05:22.304Z,58.15
2018-07-02T01:07:52.251Z,58.29
2018-07-02T01:10:21.082Z,59.50
2018-07-02T01:12:49.874Z,60.26
2018-07-02T01:15:19.308Z,59.60
2018-07-02T01:17:48.844Z,60.46
2018-07-02T01:20:18.474Z,60.78
2018-07-02T01:22:48.077Z,61.19
2018-07-02T01:25:17.746Z,61.62
2018-07-02T01:27:47.183Z,61.78
2018-07-02T01:30:16.766Z,61.89
2018-07-02T01:32:45.549Z,62.42
2018-07-02T01:35:15.163Z,62.12
2018-07-02T01:37:44.222Z,62.29
2018-07-02T01:40:14.306Z,62.50
2018-07-02T01:42:44.167Z,62.22
2018-07-02T01:45:14.031Z,62.23
2018-07-02T01:47:43.353Z,62.59
2018-07-02T01:50:12.531Z,62.19
2018-07-02T01:52:41.519Z,62.46
2018-07-02T01:55:11.220Z,62.24
2018-07-02T01:57:41.114Z,62.53
2018-07-02T02:00:10.198Z,62.92
2018-07-02T02:02:39.051Z,61.88
2018-07-02T02:05:07.847Z,62.99
2018-07-02T02:07:37.486Z,63.12
2018-07-02T02:10:06.370Z,63.25
2018-07-02T02:12:35.137Z,62.88
2018-07-02T02:15:05.064Z,63.13
2018-07-02T02:17:34.770Z,63.14
2018-07-02T02:20:04.215Z,62.83
2018-07-02T02:22:34.117Z,63.14
2018-07-02T02:25:03.583Z,62.87
2018-07-02T02:27:32.358Z,62.98
2018-07-02T02:30:02.603Z,62.60
2018-07-02T02:32:31.581Z,62.71
2018-07-02T02:35:00.384Z,62.79
2018-07-02T02:37:29.243Z,62.42
2018-07-02T02:39:59.041Z,62.54
2018-07-02T02:42:27.856Z,62.48
2018-07-02T02:44:56.668Z,62.39
2018-07-02T02:47:25.502Z,62.97
2018-07-02T02:49:54.315Z,62.73
2018-07-02T02:52:23.272Z,62.84
2018-07-02T02:54:52.823Z,61.96
2018-07-02T02:57:22.384Z,60.05
2018-07-02T02:59:51.192Z,57.68
2018-07-02T03:02:20.031Z,55.45
2018-07-02T03:04:48.869Z,53.33
2018-07-02T03:07:18.362Z,51.27
2018-07-02T03:09:47.244Z,49.24
2018-07-02T03:12:16.010Z,47.88
2018-07-02T03:14:45.891Z,45.40
2018-07-02T03:17:15.495Z,44.89
2018-07-02T03:19:45.497Z,43.16
2018-07-02T03:22:16.618Z,42.53
2018-07-02T03:24:46.317Z,42.50
2018-07-02T03:27:16.323Z,41.81
2018-07-02T03:29:45.968Z,40.40
2018-07-02T03:32:15.936Z,40.29
2018-07-02T03:34:45.593Z,38.78
2018-07-02T03:37:14.893Z,37.18
2018-07-02T03:39:44.526Z,36.78
2018-07-02T03:42:14.094Z,35.76
2018-07-02T03:44:43.170Z,35.84
2018-07-02T03:47:12.683Z,34.44
2018-07-02T03:49:41.701Z,34.76
2018-07-02T03:52:10.641Z,34.39
2018-07-02T03:54:40.240Z,33.77
2018-07-02T03:57:10.131Z,33.07
2018-07-02T03:59:38.933Z,34.19
2018-07-02T04:02:07.782Z,34.47
2018-07-02T04:04:36.637Z,33.35
2018-07-02T04:07:06.294Z,32.94
2018-07-02T04:09:35.662Z,32.61
2018-07-02T04:12:04.483Z,33.10
2018-07-02T04:14:33.960Z,33.25
2018-07-02T04:17:03.909Z,33.60
2018-07-02T04:19:33.344Z,35.44
2018-07-02T04:22:02.738Z,35.70
2018-07-02T04:24:32.416Z,36.92
2018-07-02T04:27:01.268Z,38.93
2018-07-02T04:29:30.851Z,39.87
2018-07-02T04:32:00.524Z,41.24
2018-07-02T04:34:29.312Z,42.77
2018-07-02T04:36:58.162Z,43.46
2018-07-02T04:39:26.993Z,44.55
2018-07-02T04:41:55.806Z,45.63
2018-07-02T04:44:24.727Z,46.09
2018-07-02T04:46:53.607Z,46.92
2018-07-02T04:49:22.413Z,47.40
2018-07-02T04:51:51.197Z,48.80
2018-07-02T04:54:20.823Z,49.07
2018-07-02T04:56:50.230Z,50.11
2018-07-02T04:59:19.122Z,49.57
2018-07-02T05:01:47.935Z,49.51
2018-07-02T05:04:16.930Z,49.54
2018-07-02T05:06:46.498Z,50.11
2018-07-02T05:09:16.378Z,50.05
2018-07-02T05:11:45.345Z,50.67
2018-07-02T05:14:15.155Z,51.38
2018-07-02T05:16:45.078Z,50.71
2018-07-02T05:19:15.364Z,51.49
2018-07-02T05:21:45.264Z,51.42
2018-07-02T05:24:15.539Z,50.74
2018-07-02T05:26:46.366Z,50.61
2018-07-02T05:29:16.026Z,50.93
2018-07-02T05:31:45.787Z,51.57
2018-07-02T05:34:14.997Z,51.12
2018-07-02T05:36:44.629Z,50.80
2018-07-02T05:39:13.792Z,50.96
2018-07-02T05:41:43.929Z,50.82
2018-07-02T05:44:12.982Z,51.16
2018-07-02T05:46:41.999Z,50.10
2018-07-02T05:49:10.894Z,50.80
2018-07-02T05:51:39.683Z,50.07
2018-07-02T05:54:08.599Z,49.87
2018-07-02T05:56:38.398Z,49.45
2018-07-02T05:59:07.611Z,50.50
2018-07-02T06:01:36.445Z,50.17
2018-07-02T06:04:05.288Z,49.82
2018-07-02T06:06:34.710Z,49.40
2018-07-02T06:09:05.090Z,50.16
2018-07-02T06:11:33.826Z,49.83
2018-07-02T06:14:03.670Z,49.52
2018-07-02T06:16:33.255Z,48.98
2018-07-02T06:19:02.873Z,48.41
2018-07-02T06:21:31.613Z,47.56
2018-07-02T06:24:01.199Z,47.73
2018-07-02T06:26:29.933Z,48.71
2018-07-02T06:28:59.241Z,48.28
2018-07-02T06:31:28.774Z,47.82
2018-07-02T06:33:57.522Z,48.45
2018-07-02T06:36:26.263Z,46.67
2018-07-02T06:38:55.091Z,47.07
2018-07-02T06:41:23.866Z,46.68
2018-07-02T06:43:52.903Z,46.87
2018-07-02T06:46:21.772Z,46.08
2018-07-02T06:51:33.708Z,45.90
2018-07-02T06:54:03.457Z,46.64
2018-07-02T06:56:33.035Z,46.29
2018-07-02T06:59:01.842Z,46.24
2018-07-02T07:01:30.591Z,45.58
2018-07-02T07:03:59.721Z,44.68
2018-07-02T07:06:29.205Z,44.59
2018-07-02T07:08:58.398Z,45.58
2018-07-02T07:11:27.122Z,44.48
2018-07-02T07:13:56.569Z,44.30
2018-07-02T07:16:25.847Z,43.52
2018-07-02T07:18:55.411Z,44.93
2018-07-02T07:21:24.179Z,44.38
2018-07-02T07:23:53.584Z,43.66
2018-07-02T07:26:22.332Z,43.31
2018-07-02T07:28:51.668Z,43.51
2018-07-02T07:31:21.098Z,42.44
2018-07-02T07:33:49.948Z,41.37
2018-07-02T07:36:19.423Z,41.05
2018-07-02T07:38:48.213Z,41.98
2018-07-02T07:41:17.190Z,40.54
2018-07-02T07:43:46.082Z,40.89
2018-07-02T07:46:15.187Z,41.69
2018-07-02T07:48:44.706Z,40.44
2018-07-02T07:51:13.984Z,40.62
2018-07-02T07:53:42.967Z,40.79
2018-07-02T07:56:13.287Z,39.39
2018-07-02T07:58:42.175Z,39.71
2018-07-02T08:01:10.970Z,38.86
2018-07-02T08:03:39.808Z,37.99
2018-07-02T08:06:09.669Z,38.00
2018-07-02T08:08:38.426Z,38.19
2018-07-02T08:11:07.219Z,38.36
2018-07-02T08:13:36.976Z,38.46
2018-07-02T08:16:06.485Z,37.91
2018-07-02T08:18:36.362Z,36.63
2018-07-02T08:21:05.123Z,37.28
2018-07-02T08:23:34.371Z,37.81
2018-07-02T08:26:03.223Z,37.30
2018-07-02T08:28:32.735Z,37.25
2018-07-02T08:31:02.552Z,37.03
2018-07-02T08:33:31.354Z,35.61
2018-07-02T08:36:00.121Z,35.22
2018-07-02T08:38:28.989Z,35.64
2018-07-02T08:40:57.786Z,34.80
2018-07-02T08:43:26.642Z,34.99
2018-07-02T08:45:55.379Z,35.33
2018-07-02T08:48:24.338Z,34.46
2018-07-02T08:50:53.094Z,34.77
2018-07-02T08:53:21.878Z,35.65
2018-07-02T08:55:51.614Z,35.64
2018-07-02T08:58:20.442Z,35.60
2018-07-02T09:00:49.178Z,35.37
2018-07-02T09:03:17.969Z,33.86
2018-07-02T09:05:47.751Z,33.65
2018-07-02T09:08:16.730Z,34.15
2018-07-02T09:10:45.710Z,32.42
2018-07-02T09:13:15.825Z,32.79
2018-07-02T09:15:46.150Z,33.52
2018-07-02T09:18:16.186Z,32.69
2018-07-02T09:20:45.132Z,32.77
2018-07-02T09:23:14.824Z,32.85
2018-07-02T09:25:43.578Z,32.73
2018-07-02T09:28:13.842Z,31.96
2018-07-02T09:30:42.627Z,30.53
2018-07-02T09:33:13.268Z,30.35
2018-07-02T09:35:42.035Z,31.00
2018-07-02T09:38:10.867Z,30.29
2018-07-02T09:40:39.701Z,31.91
2018-07-02T09:43:08.450Z,31.92
2018-07-02T09:45:37.355Z,33.01
2018-07-02T09:48:06.186Z,31.52
2018-07-02T09:50:34.931Z,30.76
2018-07-02T09:53:03.711Z,30.38
2018-07-02T09:55:33.312Z,30.29
2018-07-02T09:58:02.074Z,30.92
2018-07-02T10:00:30.911Z,30.76
2018-07-02T10:02:59.723Z,30.85
2018-07-02T10:05:28.494Z,31.98
2018-07-02T10:07:57.883Z,31.79
2018-07-02T10:10:27.594Z,32.22
2018-07-02T10:12:56.327Z,31.47
2018-07-02T10:15:26.144Z,32.04
2018-07-02T10:17:55.645Z,31.86
2018-07-02T10:20:25.054Z,32.48
2018-07-02T10:22:54.798Z,30.52
2018-07-02T10:25:23.809Z,31.19
2018-07-02T10:27:52.567Z,30.51
2018-07-02T10:30:22.512Z,31.25
2018-07-02T10:32:52.056Z,31.27
2018-07-02T10:35:20.909Z,30.93
2018-07-02T10:37:49.694Z,29.48
2018-07-02T10:40:19.518Z,30.15
2018-07-02T10:42:48.614Z,29.97
2018-07-02T10:45:17.985Z,29.91
2018-07-02T10:47:47.070Z,29.97
2018-07-02T10:50:16.424Z,28.53
2018-07-02T10:52:46.943Z,27.53
2018-07-02T10:55:17.134Z,28.59
2018-07-02T10:57:46.699Z,28.82
2018-07-02T11:00:17.295Z,29.77
2018-07-02T11:02:46.381Z,29.37
2018-07-02T11:05:15.179Z,28.16
2018-07-02T11:07:44.929Z,28.53
2018-07-02T11:10:13.672Z,29.07
2018-07-02T11:12:42.414Z,29.35
2018-07-02T11:15:11.962Z,28.04
2018-07-02T11:17:41.422Z,28.54
2018-07-02T11:20:11.107Z,27.48
2018-07-02T11:22:40.863Z,28.01
2018-07-02T11:25:10.290Z,28.68
2018-07-02T11:27:39.087Z,26.65
2018-07-02T11:30:08.628Z,27.51
2018-07-02T11:32:38.289Z,27.13
2018-07-02T11:35:07.045Z,27.67
2018-07-02T11:37:35.862Z,27.80
2018-07-02T11:40:04.742Z,28.00
2018-07-02T11:42:33.703Z,27.44
2018-07-02T11:45:02.595Z,27.07
2018-07-02T11:47:31.802Z,27.14
2018-07-02T11:50:00.586Z,27.69
2018-07-02T11:52:29.358Z,28.00
2018-07-02T11:54:59.325Z,27.71
2018-07-02T11:57:29.452Z,26.80
2018-07-02T11:59:58.203Z,25.99
2018-07-02T12:02:27.007Z,27.54
2018-07-02T12:04:56.617Z,26.34
2018-07-02T12:07:28.999Z,26.36
2018-07-02T12:09:57.752Z,25.81
2018-07-02T12:12:26.515Z,26.72
2018-07-02T12:14:56.082Z,26.31
2018-07-02T12:17:25.511Z,25.97
2018-07-02T12:19:54.773Z,27.10
2018-07-02T12:22:24.359Z,27.00
2018-07-02T12:24:53.915Z,27.54
2018-07-02T12:27:22.753Z,25.79
2018-07-02T12:29:52.429Z,25.86
2018-07-02T12:32:22.066Z,26.30
2018-07-02T12:34:50.791Z,25.94
2018-07-02T12:37:19.668Z,25.27
2018-07-02T12:39:48.770Z,25.31
2018-07-02T12:42:18.130Z,25.27
2018-07-02T12:44:47.212Z,25.90
2018-07-02T12:47:16.109Z,25.75
2018-07-02T12:49:44.907Z,25.79
2018-07-02T12:52:13.660Z,25.65
2018-07-02T12:54:43.485Z,26.64
2018-07-02T12:57:13.180Z,26.16
2018-07-02T12:59:41.939Z,25.83
2018-07-02T13:02:11.564Z,26.21
2018-07-02T13:05:44.469Z,26.90
2018-07-02T13:08:13.221Z,26.30
2018-07-02T13:10:42.050Z,26.21
2018-07-02T13:13:10.822Z,26.27
2018-07-02T13:15:40.545Z,26.53
2018-07-02T13:18:10.253Z,24.91
2018-07-02T13:20:39.011Z,25.56
2018-07-02T13:23:08.534Z,25.12
2018-07-02T13:25:37.457Z,26.10
2018-07-02T13:28:07.242Z,26.14
2018-07-02T13:30:36.016Z,26.63
2018-07-02T13:33:05.566Z,26.31
2018-07-02T13:35:34.969Z,25.69
2018-07-02T13:38:03.796Z,26.60
2018-07-02T13:40:32.647Z,26.50
2018-07-02T13:43:01.529Z,26.57
2018-07-02T13:45:30.464Z,25.71
2018-07-02T13:47:59.495Z,25.44
2018-07-02T13:50:28.304Z,26.02
2018-07-02T13:52:57.103Z,25.46
2018-07-02T13:55:26.652Z,25.75
2018-07-02T13:57:55.550Z,25.43
2018-07-02T14:00:25.374Z,26.15
2018-07-02T14:02:54.229Z,25.73
2018-07-02T14:05:23.082Z,24.24
2018-07-02T14:07:53.742Z,24.65
2018-07-02T14:10:22.536Z,24.83
2018-07-02T14:12:52.291Z,25.66
2018-07-02T14:15:21.821Z,25.87
2018-07-02T14:17:52.468Z,25.03
2018-07-02T14:20:21.900Z,25.36
2018-07-02T14:22:51.431Z,25.15
2018-07-02T14:25:20.179Z,25.80
2018-07-02T14:27:49.136Z,26.08
2018-07-02T14:30:19.218Z,25.03
2018-07-02T14:32:49.742Z,25.58
2018-07-02T14:35:19.192Z,24.76
2018-07-02T14:37:48.344Z,24.34
2018-07-02T14:40:17.822Z,24.92
2018-07-02T14:42:47.020Z,24.91
2018-07-02T14:45:16.919Z,24.97
2018-07-02T14:47:46.197Z,23.74
2018-07-02T14:50:14.938Z,24.10
2018-07-02T14:52:43.681Z,24.23
2018-07-02T14:55:13.126Z,25.73
2018-07-02T14:57:42.607Z,25.47
2018-07-02T15:00:11.423Z,25.10
2018-07-02T15:02:40.204Z,25.11
2018-07-02T15:05:08.978Z,24.20
2018-07-02T15:07:38.458Z,23.97
2018-07-02T15:10:07.262Z,23.72
2018-07-02T15:12:36.002Z,23.02
2018-07-02T15:15:05.919Z,23.02
2018-07-02T15:17:35.351Z,22.99
2018-07-02T15:20:05.241Z,23.72
2018-07-02T15:22:34.953Z,22.25
2018-07-02T15:25:04.402Z,22.42
2018-07-02T15:27:33.160Z,22.79
2018-07-02T15:30:02.832Z,21.41
2018-07-02T15:32:32.414Z,20.72
2018-07-02T15:35:01.517Z,21.96
2018-07-02T15:37:30.344Z,20.51
2018-07-02T15:39:59.238Z,20.24
2018-07-02T15:42:28.018Z,20.10
2018-07-02T15:44:56.895Z,18.50
2018-07-02T15:47:25.727Z,19.72
2018-07-02T15:49:54.469Z,19.66
2018-07-02T15:52:23.187Z,19.18
2018-07-02T15:54:52.886Z,18.38
2018-07-02T15:57:23.190Z,18.20
2018-07-02T15:59:57.224Z,18.48
2018-07-02T16:02:26.069Z,17.67
2018-07-02T16:04:54.826Z,17.15
2018-07-02T16:07:24.538Z,17.71
2018-07-02T16:09:53.298Z,16.30
2018-07-02T16:12:22.116Z,17.22
2018-07-02T16:14:51.488Z,16.38
2018-07-02T16:17:20.769Z,15.41
2018-07-02T16:19:50.066Z,15.62
2018-07-02T16:22:19.852Z,16.74
2018-07-02T16:24:49.701Z,15.71
2018-07-02T16:27:19.094Z,15.58
2018-07-02T16:29:49.018Z,15.46
2018-07-02T16:32:18.825Z,14.79
2018-07-02T16:34:48.582Z,15.21
2018-07-02T16:37:18.075Z,14.72
2018-07-02T16:39:47.081Z,14.31
2018-07-02T16:42:16.758Z,15.52
2018-07-02T16:44:46.866Z,16.82
2018-07-02T16:47:15.719Z,17.17
2018-07-02T16:49:44.562Z,17.58
2018-07-02T16:52:14.380Z,17.72
2018-07-02T16:54:44.126Z,17.73
2018-07-02T16:57:13.409Z,17.97
2018-07-02T16:59:42.161Z,17.14
2018-07-02T17:02:10.958Z,18.29
2018-07-02T17:04:39.746Z,18.02
2018-07-02T17:07:09.161Z,18.19
2018-07-02T17:09:37.906Z,17.02
2018-07-02T17:12:06.757Z,17.88
2018-07-02T17:14:36.111Z,17.95
2018-07-02T17:17:06.091Z,18.93
2018-07-02T17:19:35.949Z,18.34
2018-07-02T17:22:05.667Z,19.08
2018-07-02T17:24:35.117Z,19.66
2018-07-02T17:27:03.910Z,18.69
2018-07-02T17:29:33.866Z,19.28
2018-07-02T17:32:04.123Z,19.92
2018-07-02T17:34:32.875Z,20.07
2018-07-02T17:37:01.634Z,21.24
2018-07-02T17:39:30.456Z,20.61
2018-07-02T17:41:59.442Z,21.06
2018-07-02T17:44:28.346Z,21.55
2018-07-02T17:46:58.130Z,21.33
2018-07-02T17:49:27.852Z,21.08
2018-07-02T17:51:57.474Z,21.35
2018-07-02T17:54:27.910Z,21.73
2018-07-02T17:56:57.595Z,22.51
2018-07-02T17:59:26.442Z,22.06
2018-07-02T18:01:55.181Z,22.95
2018-07-02T18:04:23.965Z,22.99
2018-07-02T18:06:52.774Z,23.52
2018-07-02T18:09:21.742Z,24.55
2018-07-02T18:11:51.312Z,25.37
2018-07-02T18:14:20.851Z,26.47
2018-07-02T18:16:50.474Z,28.67
2018-07-02T18:19:20.111Z,30.21
2018-07-02T18:21:50.917Z,30.85
2018-07-02T18:24:20.532Z,30.81
2018-07-02T18:26:49.393Z,32.11
2018-07-02T18:29:19.120Z,33.44
2018-07-02T18:31:49.034Z,34.09
2018-07-02T18:34:19.280Z,34.91
2018-07-02T18:36:49.036Z,35.31
2018-07-02T18:39:18.090Z,34.95
2018-07-02T18:41:47.054Z,35.77
2018-07-02T18:44:16.321Z,35.03
2018-07-02T18:46:45.122Z,35.87
2018-07-02T18:49:14.909Z,36.72
2018-07-02T18:51:43.730Z,37.05
2018-07-02T18:54:12.510Z,36.57
2018-07-02T18:56:42.552Z,37.24
2018-07-02T18:59:11.336Z,36.80
2018-07-02T19:01:40.133Z,37.39
2018-07-02T19:04:08.962Z,37.79
2018-07-02T19:06:37.729Z,37.59
2018-07-02T19:09:10.015Z,38.15
2018-07-02T19:11:39.787Z,38.84
2018-07-02T19:14:09.508Z,40.30
2018-07-02T19:16:39.228Z,39.48
2018-07-02T19:19:08.671Z,39.41
2018-07-02T19:21:37.652Z,39.63
2018-07-02T19:24:07.419Z,39.50
2018-07-02T19:26:36.226Z,39.37
2018-07-02T19:29:05.886Z,39.67
2018-07-02T19:31:35.792Z,39.24
2018-07-02T19:34:04.643Z,39.69
2018-07-02T19:36:33.413Z,39.15
2018-07-02T19:39:02.203Z,39.02
2018-07-02T19:41:30.990Z,39.00
2018-07-02T19:43:59.871Z,39.31
2018-07-02T19:46:29.567Z,38.96
2018-07-02T19:48:59.191Z,38.87
2018-07-02T19:51:27.986Z,39.24
2018-07-02T19:53:56.786Z,39.96
2018-07-02T19:56:26.821Z,40.29
2018-07-02T19:58:55.638Z,40.24
2018-07-02T20:01:25.168Z,40.31
2018-07-02T20:03:53.973Z,40.61
2018-07-02T20:06:22.792Z,40.27
2018-07-02T20:08:51.594Z,40.83
2018-07-02T20:11:21.309Z,40.61
2018-07-02T20:13:50.966Z,40.79
2018-07-02T20:16:20.512Z,39.77
2018-07-02T20:18:50.048Z,41.00
2018-07-02T20:21:18.959Z,40.47
2018-07-02T20:23:48.902Z,41.39
2018-07-02T20:26:17.999Z,41.61
2018-07-02T20:28:47.878Z,41.80
2018-07-02T20:31:17.663Z,41.29
2018-07-02T20:33:46.697Z,41.93
2018-07-02T20:36:16.041Z,42.42
2018-07-02T20:38:45.394Z,41.75
2018-07-02T20:41:14.310Z,42.01
2018-07-02T20:43:43.930Z,42.07
2018-07-02T20:46:12.683Z,42.48
2018-07-02T20:48:41.430Z,42.08
2018-07-02T20:51:10.250Z,42.83
2018-07-02T20:53:39.450Z,43.32
2018-07-02T20:56:09.805Z,42.50
2018-07-02T20:58:38.582Z,42.51
2018-07-02T21:01:07.415Z,42.66
2018-07-02T21:03:36.221Z,42.79
2018-07-02T21:06:05.018Z,43.37
2018-07-02T21:08:33.926Z,44.52
2018-07-02T21:11:03.492Z,43.56
2018-07-02T21:13:33.147Z,44.58
2018-07-02T21:16:03.021Z,44.84
2018-07-02T21:18:32.567Z,44.80
2018-07-02T21:21:01.370Z,44.65
2018-07-02T21:23:30.609Z,47.50
2018-07-02T21:25:59.397Z,49.28
2018-07-02T21:28:28.815Z,48.96
2018-07-02T21:30:58.483Z,48.08
2018-07-02T21:33:27.241Z,47.00
2018-07-02T21:35:56.019Z,49.12
2018-07-02T21:38:24.803Z,48.24
2018-07-02T21:40:54.830Z,47.96
2018-07-02T21:43:23.583Z,47.40
2018-07-02T21:45:53.125Z,48.74
2018-07-02T21:48:22.467Z,49.05
2018-07-02T21:50:51.261Z,49.25
2018-07-02T21:53:21.013Z,47.85
2018-07-02T21:55:50.579Z,48.21
2018-07-02T21:58:19.403Z,47.52
2018-07-02T22:00:49.283Z,49.28
2018-07-02T22:03:18.598Z,49.32
2018-07-02T22:05:47.673Z,48.74
2018-07-02T22:08:16.739Z,48.49
2018-07-02T22:10:46.118Z,48.18
2018-07-02T22:13:16.363Z,48.08
2018-07-02T22:15:46.743Z,48.49
2018-07-02T22:18:16.874Z,48.42
2018-07-02T22:20:45.693Z,48.39
2018-07-02T22:23:15.235Z,48.93
2018-07-02T22:25:44.008Z,48.94
2018-07-02T22:28:13.695Z,48.78
2018-07-02T22:30:42.686Z,48.74
2018-07-02T22:33:12.182Z,50.46
2018-07-02T22:35:40.967Z,49.59
2018-07-02T22:38:10.229Z,48.72
2018-07-02T22:40:39.033Z,49.56
2018-07-02T22:43:07.853Z,49.13
2018-07-02T22:45:36.649Z,49.03
2018-07-02T22:48:05.439Z,49.59
2018-07-02T22:50:34.319Z,48.88
2018-07-02T22:53:03.271Z,49.07
2018-07-02T22:55:41.348Z,49.18
2018-07-02T22:58:10.094Z,49.77
2018-07-02T23:00:38.850Z,48.68
2018-07-02T23:03:07.753Z,49.46
2018-07-02T23:05:36.615Z,49.60
2018-07-02T23:08:05.498Z,50.14
2018-07-02T23:10:34.618Z,50.31
2018-07-02T23:13:04.223Z,50.35
2018-07-02T23:15:34.219Z,51.23
2018-07-02T23:18:04.004Z,50.74
2018-07-02T23:20:32.752Z,50.46
2018-07-02T23:23:03.726Z,50.76
2018-07-02T23:25:32.507Z,50.83
2018-07-02T23:28:02.280Z,51.17
2018-07-02T23:30:33.005Z,51.17
2018-07-02T23:33:02.486Z,51.35
2018-07-02T23:35:32.174Z,50.57
2018-07-02T23:38:00.948Z,50.86
2018-07-02T23:40:29.759Z,51.21
2018-07-02T23:42:58.631Z,51.41
2018-07-02T23:45:27.420Z,51.31
2018-07-02T23:47:56.774Z,52.13
2018-07-02T23:50:25.618Z,51.81
2018-07-02T23:52:54.406Z,51.44
2018-07-02T23:55:24.233Z,51.09
2018-07-02T23:57:53.029Z,51.25
